Time;durP1;ratioP1;P1;durP2;ratioP2;P2;SDS_P1;SDS_P2;PMS_P1;PMS_P2;Temp;Humidity;BMP_temperature;BMP_pressure;BME280_temperature;BME280_humidity;BME280_pressure;Samples;Min_cycle;Max_cycle;Signal;HPM_P1;HPM_P2
2022/09/05 00:00:22;;;;;;;15.03;7.90;;;;;;;15.47;100.00;100332.09;1613840;87;20960;-74
2022/09/05 00:03:18;;;;;;;15.65;7.42;;;;;;;15.51;100.00;100325.27;1665229;85;21061;-74
2022/09/05 00:06:02;;;;;;;15.90;7.95;;;;;;;15.55;100.00;100324.86;1663231;83;21137;-69
2022/09/05 00:09:12;;;;;;;15.25;7.58;;;;;;;15.57;100.00;100315.02;1690508;83;21564;-70
2022/09/05 00:11:48;;;;;;;17.32;7.62;;;;;;;15.61;100.00;100311.60;1624147;87;21488;-72
2022/09/05 00:14:30;;;;;;;12.82;6.78;;;;;;;15.62;100.00;100310.44;1659389;85;20957;-67
2022/09/05 00:17:29;;;;;;;21.97;8.58;;;;;;;15.62;100.00;100309.05;1666932;85;21069;-70
2022/09/05 00:20:34;;;;;;;15.88;7.42;;;;;;;15.63;100.00;100303.16;1672172;84;20949;-68
2022/09/05 00:23:53;;;;;;;16.57;6.72;;;;;;;15.64;100.00;100302.59;1668836;84;20963;-71
2022/09/05 00:26:30;;;;;;;10.58;6.67;;;;;;;15.63;100.00;100296.22;1667930;84;21161;-68
2022/09/05 00:29:19;;;;;;;13.32;6.95;;;;;;;15.63;100.00;100292.62;1664199;84;20957;-71
2022/09/05 00:32:17;;;;;;;10.88;6.28;;;;;;;15.61;100.00;100294.94;1638320;87;21019;-69
2022/09/05 00:35:11;;;;;;;12.82;7.62;;;;;;;15.60;100.00;100289.95;1660021;83;20859;-70
2022/09/05 00:37:41;;;;;;;14.35;7.53;;;;;;;15.60;100.00;100290.52;1664783;85;20915;-68
2022/09/05 00:40:32;;;;;;;15.60;6.65;;;;;;;15.65;100.00;100288.94;1676943;84;21112;-69
2022/09/05 00:43:19;;;;;;;15.55;6.97;;;;;;;15.61;100.00;100283.83;1701815;83;21070;-71
2022/09/05 00:46:09;;;;;;;14.30;6.45;;;;;;;15.62;100.00;100281.28;1632053;85;21114;-70
2022/09/05 00:49:21;;;;;;;13.43;6.97;;;;;;;15.64;100.00;100278.98;1684889;84;20905;-71
2022/09/05 00:52:05;;;;;;;13.95;6.85;;;;;;;15.60;100.00;100279.41;1651793;83;21020;-69
2022/09/05 00:55:03;;;;;;;13.13;6.75;;;;;;;15.60;100.00;100273.85;1710104;83;22049;-73
2022/09/05 00:57:54;;;;;;;13.58;6.80;;;;;;;15.63;100.00;100267.62;1696329;84;21576;-74
2022/09/05 01:00:49;;;;;;;18.42;7.05;;;;;;;15.57;100.00;100269.20;1695177;83;21004;-68
2022/09/05 01:03:37;;;;;;;15.53;6.92;;;;;;;15.51;100.00;100268.34;1694013;83;21417;-70
2022/09/05 01:06:51;;;;;;;12.33;6.53;;;;;;;15.42;100.00;100263.66;1667570;84;21162;-71
2022/09/05 01:09:48;;;;;;;12.40;7.15;;;;;;;15.36;100.00;100263.62;1689257;84;21331;-69
2022/09/05 01:12:37;;;;;;;17.12;7.20;;;;;;;15.30;100.00;100264.37;1692306;84;21003;-69
2022/09/05 01:15:14;;;;;;;13.15;6.85;;;;;;;15.33;100.00;100262.34;1683170;84;21011;-69
2022/09/05 01:18:14;;;;;;;13.25;7.58;;;;;;;15.35;100.00;100259.79;1695723;83;20916;-69
2022/09/05 01:21:04;;;;;;;15.30;7.33;;;;;;;15.36;100.00;100258.63;1680363;84;21513;-69
2022/09/05 01:24:01;;;;;;;15.15;7.62;;;;;;;15.30;100.00;100262.19;1667684;85;21271;-71
2022/09/05 01:27:08;;;;;;;11.57;6.55;;;;;;;15.21;100.00;100259.45;1667213;85;21490;-72
2022/09/05 01:29:56;;;;;;;13.58;6.50;;;;;;;15.13;100.00;100255.55;1672046;84;20983;-68
2022/09/05 01:33:09;;;;;;;12.53;6.60;;;;;;;15.06;100.00;100260.83;1666842;85;20949;-68
2022/09/05 01:36:28;;;;;;;10.78;5.90;;;;;;;15.06;100.00;100261.62;1687373;84;21017;-70
2022/09/05 01:39:44;;;;;;;13.10;7.03;;;;;;;15.01;100.00;100259.02;1609620;86;21048;-69
2022/09/05 01:42:39;;;;;;;10.78;6.30;;;;;;;15.02;100.00;100259.28;1678569;84;20953;-71
2022/09/05 01:45:43;;;;;;;14.10;6.92;;;;;;;14.94;100.00;100249.83;1693105;84;21461;-71
2022/09/05 01:48:15;;;;;;;10.90;6.37;;;;;;;14.93;100.00;100246.83;1676965;84;21580;-71
2022/09/05 01:50:55;;;;;;;11.80;6.65;;;;;;;14.91;100.00;100246.93;1643986;86;21564;-69
2022/09/05 01:53:38;;;;;;;14.83;6.70;;;;;;;14.87;100.00;100245.39;1644862;86;21271;-70
2022/09/05 01:56:34;;;;;;;15.23;7.15;;;;;;;14.83;100.00;100241.08;1645178;86;21183;-73
2022/09/05 01:59:24;;;;;;;11.73;6.97;;;;;;;14.80;100.00;100238.11;1646608;85;21024;-73
2022/09/05 02:02:17;;;;;;;13.70;7.03;;;;;;;14.80;100.00;100241.73;1616500;87;21517;-70
2022/09/05 02:05:11;;;;;;;12.03;6.35;;;;;;;14.79;100.00;100242.05;1705162;84;20970;-68
2022/09/05 02:08:09;;;;;;;12.95;6.53;;;;;;;14.75;100.00;100241.89;1692994;83;21091;-68
2022/09/05 02:11:04;;;;;;;10.82;6.87;;;;;;;14.72;100.00;100238.39;1677354;84;21472;-68
2022/09/05 02:13:56;;;;;;;12.25;6.10;;;;;;;14.68;100.00;100254.05;1674435;84;20981;-68
2022/09/05 02:16:38;;;;;;;15.23;6.50;;;;;;;14.71;100.00;100249.23;1692828;84;21468;-67
2022/09/05 02:19:21;;;;;;;11.55;6.65;;;;;;;14.74;100.00;100251.33;1703664;83;20880;-68
2022/09/05 02:22:08;;;;;;;10.85;6.58;;;;;;;14.74;100.00;100244.40;1705352;84;21298;-72
2022/09/05 02:24:43;;;;;;;12.63;6.05;;;;;;;14.77;100.00;100243.77;1703258;83;21071;-71
2022/09/05 02:27:36;;;;;;;9.20;5.62;;;;;;;14.79;100.00;100248.38;1706127;83;21063;-68
2022/09/05 02:30:18;;;;;;;15.38;6.75;;;;;;;14.75;100.00;100243.84;1684940;83;20933;-73
2022/09/05 02:33:14;;;;;;;13.13;6.25;;;;;;;14.74;100.00;100241.63;1680705;85;21025;-70
2022/09/05 02:36:02;;;;;;;9.30;5.37;;;;;;;14.76;100.00;100247.66;1682927;83;21070;-72
2022/09/05 02:38:53;;;;;;;12.05;5.78;;;;;;;14.79;100.00;100241.45;1705896;83;20892;-73
2022/09/05 02:41:43;;;;;;;;;;;;;;;14.86;100.00;100245.13;1688436;84;21524;-69
2022/09/05 02:44:19;;;;;;;9.60;6.05;;;;;;;14.93;100.00;100243.23;1704171;83;20126;-67
2022/09/05 02:47:07;;;;;;;11.65;5.78;;;;;;;14.98;100.00;100229.77;1701765;83;21080;-68
2022/09/05 02:50:01;;;;;;;11.10;6.00;;;;;;;15.01;100.00;100227.11;1692836;83;21214;-73
2022/09/05 02:52:31;;;;;;;10.30;5.28;;;;;;;15.06;100.00;100233.87;1689617;83;20975;-68
2022/09/05 02:55:00;;;;;;;11.57;5.85;;;;;;;15.10;100.00;100232.63;1700837;84;21550;-72
2022/09/05 02:57:47;;;;;;;14.25;6.00;;;;;;;15.11;100.00;100233.45;1683890;83;21465;-69
2022/09/05 03:00:28;;;;;;;13.00;6.12;;;;;;;15.09;100.00;100236.00;1702881;83;21496;-74
2022/09/05 03:03:33;;;;;;;14.10;5.75;;;;;;;15.09;100.00;100233.79;1689021;83;21312;-73
2022/09/05 03:06:12;;;;;;;9.40;5.37;;;;;;;15.14;100.00;100241.11;1688605;83;20988;-73
2022/09/05 03:09:13;;;;;;;13.32;6.10;;;;;;;15.15;100.00;100237.20;1688891;83;21043;-71
2022/09/05 03:12:35;;;;;;;8.88;5.10;;;;;;;15.17;100.00;100233.50;1687967;84;20864;-73
2022/09/05 03:15:31;;;;;;;14.63;6.00;;;;;;;15.21;100.00;100235.30;1691291;83;21554;-72
2022/09/05 03:18:15;;;;;;;10.28;6.33;;;;;;;15.24;100.00;100235.19;1705677;83;21144;-74
2022/09/05 03:20:53;;;;;;;;;;;;;;;15.24;100.00;100235.19;1714508;82;21486;-69
2022/09/05 03:24:02;;;;;;;11.65;4.83;;;;;;;15.26;100.00;100235.67;1704810;83;20103;-73
2022/09/05 03:27:11;;;;;;;13.30;5.62;;;;;;;15.21;100.00;100242.80;1706071;83;21009;-70
2022/09/05 03:30:02;;;;;;;12.10;6.83;;;;;;;15.18;100.00;100245.65;1703779;83;21090;-68
2022/09/05 03:32:53;;;;;;;11.80;6.47;;;;;;;15.20;100.00;100245.31;1706642;83;21147;-72
2022/09/05 03:35:48;;;;;;;15.15;6.20;;;;;;;15.20;100.00;100244.75;1705898;83;20969;-72
2022/09/05 03:38:24;;;;;;;11.97;6.67;;;;;;;15.21;100.00;100246.96;1678895;83;20968;-73
2022/09/05 03:41:02;;;;;;;12.58;6.00;;;;;;;15.24;100.00;100249.06;1698426;84;20947;-69
2022/09/05 03:44:06;;;;;;;10.00;5.92;;;;;;;15.25;100.00;100245.72;1706084;83;21518;-72
2022/09/05 03:46:49;;;;;;;;;;;;;;;15.25;100.00;100247.90;1705855;83;21174;-72
2022/09/05 03:49:23;;;;;;;18.20;8.33;;;;;;;15.28;100.00;100243.09;1705947;83;20093;-69
2022/09/05 03:52:39;;;;;;;18.25;7.83;;;;;;;15.29;100.00;100243.89;1704883;83;21039;-69
2022/09/05 03:55:48;;;;;;;15.63;6.37;;;;;;;15.29;100.00;100246.09;1695950;83;21461;-72
2022/09/05 03:58:51;;;;;;;11.50;6.70;;;;;;;15.27;100.00;100242.84;1688312;84;20972;-68
2022/09/05 04:01:34;;;;;;;18.17;8.73;;;;;;;15.25;100.00;100242.95;1702531;83;21136;-73
2022/09/05 04:04:11;;;;;;;;;;;;;;;15.25;100.00;100242.34;1707683;83;21456;-68
2022/09/05 04:06:46;;;;;;;19.65;7.30;;;;;;;15.25;100.00;100242.34;1705902;83;20162;-72
2022/09/05 04:09:40;;;;;;;14.73;7.17;;;;;;;15.26;100.00;100239.83;1704789;83;21055;-70
2022/09/05 04:12:27;;;;;;;15.78;8.15;;;;;;;15.24;100.00;100242.69;1670790;85;21099;-72
2022/09/05 04:15:09;;;;;;;14.25;6.87;;;;;;;15.24;100.00;100242.12;1660124;85;21076;-72
2022/09/05 04:17:45;;;;;;;15.53;7.35;;;;;;;15.25;100.00;100232.64;1660059;85;20980;-70
2022/09/05 04:20:48;;;;;;;17.57;6.75;;;;;;;15.30;100.00;100235.81;1698309;82;20931;-69
2022/09/05 04:23:58;;;;;;;11.12;6.50;;;;;;;15.34;100.00;100239.53;1698965;83;20949;-71
2022/09/05 04:26:46;;;;;;;10.65;6.03;;;;;;;15.36;100.00;100246.96;1693258;84;20988;-71
2022/09/05 04:29:37;;;;;;;9.48;5.87;;;;;;;15.37;100.00;100240.84;1704646;83;21129;-69
2022/09/05 04:32:36;;;;;;;14.43;6.42;;;;;;;15.40;100.00;100245.72;1705737;84;21000;-72
2022/09/05 04:35:49;;;;;;;10.60;6.15;;;;;;;15.44;100.00;100246.66;1704322;83;21059;-72
2022/09/05 04:38:38;;;;;;;13.62;6.55;;;;;;;15.45;100.00;100242.75;1703192;83;21021;-68
2022/09/05 04:41:27;;;;;;;12.95;6.95;;;;;;;15.52;100.00;100245.00;1703027;84;20933;-74
2022/09/05 04:43:59;;;;;;;12.30;6.08;;;;;;;15.54;100.00;100237.94;1701825;84;21135;-72
2022/09/05 04:46:44;;;;;;;15.53;6.65;;;;;;;15.61;100.00;100244.35;1700057;82;20949;-70
2022/09/05 04:49:27;;;;;;;15.70;7.12;;;;;;;15.61;100.00;100241.58;1637496;86;21425;-74
2022/09/05 04:52:51;;;;;;;19.82;7.47;;;;;;;15.65;100.00;100240.33;1643393;85;21025;-69
2022/09/05 04:55:41;;;;;;;12.18;6.75;;;;;;;15.70;100.00;100235.40;1649209;86;20949;-69
2022/09/05 04:58:25;;;;;;;15.88;6.83;;;;;;;15.78;100.00;100242.03;1650357;85;21162;-67
2022/09/05 05:01:05;;;;;;;13.20;5.78;;;;;;;15.80;100.00;100251.41;1668892;85;20954;-70
2022/09/05 05:03:34;;;;;;;15.85;6.97;;;;;;;15.83;100.00;100242.42;1651999;85;21066;-69
2022/09/05 05:06:23;;;;;;;13.90;6.75;;;;;;;15.89;100.00;100239.67;1659953;85;21471;-70
2022/09/05 05:08:58;;;;;;;15.60;6.22;;;;;;;15.98;100.00;100240.17;1653189;85;21510;-67
2022/09/05 05:11:49;;;;;;;17.95;6.92;;;;;;;16.05;100.00;100244.05;1665262;85;21142;-70
2022/09/05 05:14:34;;;;;;;13.55;7.10;;;;;;;16.14;100.00;100243.98;1659810;85;20953;-71
2022/09/05 05:17:27;;;;;;;11.12;6.75;;;;;;;16.22;100.00;100246.47;1667747;85;20974;-71
2022/09/05 05:20:02;;;;;;;14.63;7.55;;;;;;;16.28;100.00;100244.27;1657159;85;21475;-73
2022/09/05 05:22:31;;;;;;;11.18;6.15;;;;;;;16.35;100.00;100242.33;1641358;83;21099;-69
2022/09/05 05:24:57;;;;;;;18.10;7.03;;;;;;;16.41;100.00;100250.11;1695603;83;21613;-72
2022/09/05 05:27:43;;;;;;;15.80;6.78;;;;;;;16.44;100.00;100241.67;1692313;83;21402;-73
2022/09/05 05:30:14;;;;;;;11.63;6.60;;;;;;;16.43;100.00;100249.77;1662433;83;21012;-68
2022/09/05 05:32:42;;;;;;;15.83;7.30;;;;;;;16.42;100.00;100240.63;1621071;86;21008;-71
2022/09/05 05:35:33;;;;;;;16.02;7.90;;;;;;;16.48;100.00;100240.42;1648184;85;20992;-73
2022/09/05 05:38:24;;;;;;;15.83;9.18;;;;;;;16.54;100.00;100249.59;1646754;85;21172;-67
2022/09/05 05:40:56;;;;;;;18.70;8.70;;;;;;;16.59;100.00;100242.98;1662732;85;20985;-70
2022/09/05 05:43:33;;;;;;;24.85;9.85;;;;;;;16.61;100.00;100247.64;1661618;85;20934;-70
2022/09/05 05:46:02;;;;;;;19.00;9.13;;;;;;;16.65;100.00;100249.16;1665088;85;21014;-68
2022/09/05 05:48:44;;;;;;;16.60;8.73;;;;;;;16.71;100.00;100245.56;1690351;83;21545;-69
2022/09/05 05:51:56;;;;;;;22.13;8.60;;;;;;;16.75;100.00;100246.51;1705933;84;21152;-69
2022/09/05 05:55:07;;;;;;;18.95;8.98;;;;;;;16.81;100.00;100247.90;1705781;84;20886;-68
2022/09/05 05:58:28;;;;;;;16.65;8.83;;;;;;;16.86;100.00;100251.86;1686275;83;20996;-67
2022/09/05 06:01:20;;;;;;;23.80;9.40;;;;;;;16.87;100.00;100252.08;1674669;84;20989;-71
2022/09/05 06:08:22;;;;;;;17.30;8.13;;;;;;;16.92;100.00;100256.63;1695529;84;20978;-72
2022/09/05 06:11:13;;;;;;;18.82;7.85;;;;;;;16.94;100.00;100258.46;1613416;88;20924;-70
2022/09/05 06:14:07;;;;;;;16.87;8.40;;;;;;;16.96;100.00;100264.50;1641982;84;21476;-72
2022/09/05 06:16:51;;;;;;;17.45;8.03;;;;;;;16.97;100.00;100259.19;1706262;84;20910;-74
2022/09/05 06:19:55;;;;;;;17.25;9.65;;;;;;;17.01;100.00;100260.67;1705826;84;20970;-73
2022/09/05 06:22:58;;;;;;;24.82;9.45;;;;;;;17.02;100.00;100257.57;1705957;83;20886;-73
2022/09/05 06:25:50;;;;;;;18.62;8.95;;;;;;;17.12;100.00;100261.08;1705854;84;20950;-72
2022/09/05 06:28:52;;;;;;;16.93;8.53;;;;;;;17.27;100.00;100263.74;1695850;82;21172;-73
2022/09/05 06:31:53;;;;;;;16.37;8.53;;;;;;;17.45;100.00;100261.53;1686926;83;21110;-73
2022/09/05 06:34:43;;;;;;;17.75;8.90;;;;;;;17.68;100.00;100258.27;1680363;83;20979;-72
2022/09/05 06:37:49;;;;;;;17.52;8.73;;;;;;;17.91;100.00;100266.70;1682617;83;21036;-72
2022/09/05 06:40:26;;;;;;;17.75;9.03;;;;;;;18.09;100.00;100286.16;1678822;83;21097;-73
2022/09/05 06:43:32;;;;;;;18.75;8.60;;;;;;;18.24;100.00;100285.20;1695525;83;20990;-72
2022/09/05 06:46:26;;;;;;;17.52;7.97;;;;;;;18.34;100.00;100284.70;1683128;83;20978;-72
2022/09/05 06:49:16;;;;;;;34.23;9.78;;;;;;;18.40;100.00;100283.05;1705950;83;21013;-72
2022/09/05 06:56:07;;;;;;;19.23;9.15;;;;;;;18.40;99.69;100285.27;1687257;83;21421;-71
2022/09/05 06:58:54;;;;;;;18.25;9.68;;;;;;;18.36;98.24;100295.50;1686291;83;21055;-72
2022/09/05 07:01:26;;;;;;;19.12;9.53;;;;;;;18.24;98.58;100307.51;1686558;83;21474;-68
2022/09/05 07:07:34;;;;;;;25.70;13.93;;;;;;;18.18;100.00;100300.56;1685060;84;21028;-70
2022/09/05 07:10:11;;;;;;;67.27;35.55;;;;;;;18.20;100.00;100303.22;1663566;85;20921;-70
2022/09/05 07:28:57;;;;;;;184.55;100.95;;;;;;;18.56;100.00;100319.38;1697912;83;21019;-74
2022/09/05 08:08:17;;;;;;;126.72;63.23;;;;;;;17.52;100.00;100336.15;1574987;88;21035;-73
2022/09/05 08:11:58;;;;;;;105.22;52.98;;;;;;;17.47;100.00;100346.16;1570234;88;21056;-72
2022/09/05 08:19:19;;;;;;;88.82;46.28;;;;;;;17.19;100.00;100373.27;1520731;93;21293;-73
2022/09/05 08:21:55;;;;;;;88.95;45.55;;;;;;;17.25;100.00;100360.16;1537036;91;21117;-74
2022/09/05 08:24:40;;;;;;;92.00;48.48;;;;;;;17.37;100.00;100330.12;1548527;91;21568;-72
2022/09/05 08:27:21;;;;;;;82.02;45.75;;;;;;;17.48;100.00;100331.87;1583309;87;21611;-73
2022/09/05 08:30:01;;;;;;;89.70;47.62;;;;;;;17.61;100.00;100331.86;1648292;87;21035;-72
2022/09/05 08:32:45;;;;;;;95.38;52.30;;;;;;;17.68;100.00;100333.49;1648425;86;21167;-72
2022/09/05 08:35:17;;;;;;;91.45;51.00;;;;;;;17.63;100.00;100330.94;1648234;86;20987;-74
2022/09/05 08:37:44;;;;;;;89.00;45.88;;;;;;;17.67;100.00;100323.52;1639656;86;21097;-74
2022/09/05 08:40:36;;;;;;;82.82;42.58;;;;;;;17.80;100.00;100318.73;1638898;87;21014;-73
2022/09/05 08:43:32;;;;;;;68.37;37.05;;;;;;;17.95;100.00;100315.80;1638636;86;21483;-74
2022/09/05 08:46:18;;;;;;;68.05;38.00;;;;;;;18.11;100.00;100309.50;1636796;87;21570;-73
2022/09/05 08:49:31;;;;;;;59.65;34.85;;;;;;;18.34;100.00;100312.59;1593458;89;20970;-75
2022/09/05 08:52:06;;;;;;;63.30;32.63;;;;;;;18.58;100.00;100311.45;1595789;90;21099;-71
2022/09/05 08:54:49;;;;;;;65.45;35.30;;;;;;;18.78;100.00;100302.63;1589322;89;21049;-74
2022/09/05 08:57:20;;;;;;;72.87;37.70;;;;;;;18.94;100.00;100310.21;1606956;87;21008;-75
2022/09/05 09:00:05;;;;;;;67.47;37.28;;;;;;;19.07;100.00;100301.19;1615047;88;21429;-73
2022/09/05 09:03:09;;;;;;;48.30;28.30;;;;;;;19.24;100.00;100300.63;1621619;88;21079;-77
2022/09/05 09:06:05;;;;;;;51.35;27.60;;;;;;;19.41;100.00;100299.45;1621752;88;20984;-76
2022/09/05 09:09:14;;;;;;;48.13;28.12;;;;;;;19.48;100.00;100294.63;1621107;88;21571;-76
2022/09/05 09:12:10;;;;;;;58.42;31.05;;;;;;;19.65;100.00;100298.41;1663673;85;21033;-76
2022/09/05 09:14:48;;;;;;;68.70;28.65;;;;;;;19.80;100.00;100300.16;1679087;84;21170;-74
2022/09/05 09:17:42;;;;;;;34.03;19.85;;;;;;;19.93;100.00;100299.42;1693935;83;20953;-74
2022/09/05 09:20:37;;;;;;;38.45;20.68;;;;;;;20.08;100.00;100299.17;1695412;83;20942;-74
2022/09/05 09:23:16;;;;;;;40.35;20.52;;;;;;;20.17;100.00;100307.36;1685546;83;20865;-72
2022/09/05 09:26:09;;;;;;;29.72;17.52;;;;;;;20.13;100.00;100297.49;1677855;84;20958;-74
2022/09/05 09:29:07;;;;;;;29.10;16.15;;;;;;;20.21;100.00;100299.05;1669500;84;22370;-71
2022/09/05 09:32:09;;;;;;;36.23;20.08;;;;;;;20.29;100.00;100287.64;1689317;84;21047;-74
2022/09/05 09:35:33;;;;;;;35.63;20.00;;;;;;;20.42;100.00;100286.10;1650936;86;21470;-73
2022/09/05 10:55:17;;;;;;;12.10;6.55;;;;;;;22.10;72.42;100230.74;1753704;79;20872;-76
2022/09/05 10:58:03;;;;;;;20.97;7.45;;;;;;;22.02;75.52;100227.64;1737451;80;21031;-74
2022/09/05 11:01:02;;;;;;;11.12;5.08;;;;;;;22.07;76.74;100223.09;1690467;81;21627;-74
2022/09/05 11:03:57;;;;;;;10.65;5.08;;;;;;;22.08;72.61;100225.28;1753625;81;21106;-75
2022/09/05 11:06:52;;;;;;;7.50;4.27;;;;;;;22.03;69.46;100224.22;1754542;81;21453;-74
2022/09/05 11:09:40;;;;;;;12.95;5.15;;;;;;;21.88;67.88;100223.47;1750223;81;21242;-73
2022/09/05 11:12:58;;;;;;;6.65;4.22;;;;;;;21.86;66.74;100227.24;1754744;81;21421;-71
2022/09/05 11:36:57;;;;;;;17.75;8.05;;;;;;;21.14;80.11;100222.19;1633895;87;21108;-70
2022/09/05 11:40:08;;;;;;;16.12;8.40;;;;;;;20.78;83.33;100223.77;1633347;86;21702;-67
2022/09/05 11:43:46;;;;;;;18.05;8.90;;;;;;;20.67;85.19;100230.60;1599325;89;21048;-69
2022/09/05 11:46:45;;;;;;;17.05;9.38;;;;;;;20.65;86.38;100234.35;1565120;91;21015;-69
2022/09/05 11:53:57;;;;;;;17.05;8.43;;;;;;;20.54;84.70;100221.55;1564708;90;21558;-67
2022/09/05 12:00:19;;;;;;;11.50;6.28;;;;;;;20.63;86.51;100214.31;1525068;93;21615;-70
2022/09/05 12:03:44;;;;;;;10.10;4.58;;;;;;;20.82;84.12;100209.02;1550600;90;21048;-76
2022/09/05 12:07:17;;;;;;;14.43;3.65;;;;;;;20.91;82.44;100203.98;1564588;91;20965;-72
2022/09/05 12:26:17;;;;;;;13.80;3.60;;;;;;;21.20;78.19;100189.07;1620656;88;21040;-72
2022/09/05 12:29:53;;;;;;;17.57;4.75;;;;;;;21.30;73.44;100185.39;1620010;88;21008;-74
2022/09/05 12:37:06;;;;;;;9.63;5.05;;;;;;;21.33;67.46;100187.43;1567760;90;21508;-74
2022/09/05 12:46:57;;;;;;;24.12;5.70;;;;;;;21.04;67.98;100178.83;1567421;91;21067;-72
2022/09/05 12:49:37;;;;;;;11.73;5.72;;;;;;;21.22;65.42;100174.06;1535733;92;21021;-71
2022/09/05 12:52:06;;;;;;;10.72;4.05;;;;;;;21.35;64.78;100184.48;1543208;92;21071;-70
2022/09/05 12:54:53;;;;;;;6.58;3.25;;;;;;;21.43;64.50;100171.98;1559027;90;21523;-69
2022/09/05 12:57:38;;;;;;;7.08;3.85;;;;;;;21.57;65.31;100174.96;1556072;88;21111;-71
2022/09/05 13:00:20;;;;;;;6.80;3.10;;;;;;;21.75;65.12;100171.59;1536950;90;21480;-68
2022/09/05 13:03:01;;;;;;;8.90;3.92;;;;;;;21.80;61.10;100169.07;1612375;88;21099;-70
2022/09/05 13:05:50;;;;;;;6.35;3.95;;;;;;;21.67;58.84;100174.06;1615371;88;21079;-65
2022/09/05 13:08:21;;;;;;;6.45;3.45;;;;;;;21.52;57.51;100174.70;1594126;88;20983;-66
2022/09/05 13:10:55;;;;;;;10.53;3.60;;;;;;;21.26;56.73;100171.33;1615520;88;21429;-71
2022/09/05 13:13:34;;;;;;;7.23;3.90;;;;;;;21.14;57.38;100173.17;1615725;88;21196;-71
2022/09/05 13:16:02;;;;;;;6.97;3.67;;;;;;;20.95;57.09;100167.67;1644488;86;20953;-72
2022/09/05 13:18:38;;;;;;;9.13;4.40;;;;;;;20.81;58.03;100164.83;1626320;86;21027;-70
2022/09/05 13:21:26;;;;;;;11.70;5.00;;;;;;;20.70;58.92;100156.83;1669053;85;21449;-70
2022/09/05 13:24:31;;;;;;;9.13;4.50;;;;;;;20.72;61.62;100163.69;1669673;85;21019;-71
2022/09/05 13:27:14;;;;;;;9.23;3.85;;;;;;;20.81;60.38;100156.44;1669318;86;21700;-69
2022/09/05 13:29:52;;;;;;;8.13;5.72;;;;;;;21.01;62.04;100157.76;1658718;85;21046;-68
2022/09/05 13:32:29;;;;;;;16.37;6.80;;;;;;;21.16;58.27;100155.98;1669173;86;20971;-69
2022/09/05 13:35:07;;;;;;;12.43;5.80;;;;;;;21.28;55.52;100150.75;1669673;85;20970;-74
2022/09/05 13:37:39;;;;;;;12.18;6.55;;;;;;;21.31;53.88;100155.59;1669366;86;21105;-70
2022/09/05 13:40:18;;;;;;;8.53;5.35;;;;;;;21.24;54.43;100153.49;1669646;86;21050;-70
2022/09/05 13:42:55;;;;;;;11.53;6.47;;;;;;;21.21;55.07;100152.03;1669150;86;21071;-71
2022/09/05 13:45:25;;;;;;;11.33;6.78;;;;;;;21.19;55.27;100153.81;1668310;85;21000;-70
2022/09/05 13:48:19;;;;;;;11.15;5.95;;;;;;;21.12;52.05;100160.13;1669248;86;21116;-70
2022/09/05 13:50:51;;;;;;;8.30;4.00;;;;;;;20.95;53.40;100158.66;1669193;86;21112;-72
2022/09/05 13:53:36;;;;;;;8.53;3.20;;;;;;;20.80;54.17;100168.80;1668910;84;21307;-69
2022/09/05 13:56:21;;;;;;;7.53;3.87;;;;;;;20.74;53.75;100171.12;1669324;84;21019;-69
2022/09/05 13:58:52;;;;;;;8.60;4.10;;;;;;;20.63;54.83;100180.73;1664605;85;21051;-72
2022/09/05 14:01:50;;;;;;;7.95;4.10;;;;;;;20.53;54.80;100169.57;1659504;85;20912;-68
2022/09/05 14:04:44;;;;;;;8.13;4.35;;;;;;;20.43;54.79;100180.80;1659377;85;20904;-69
2022/09/05 14:07:43;;;;;;;9.95;5.42;;;;;;;20.27;55.37;100180.06;1659334;86;21115;-70
2022/09/05 14:10:20;;;;;;;13.83;7.75;;;;;;;20.30;56.15;100188.53;1659844;85;21051;-69
2022/09/05 14:13:03;;;;;;;18.00;9.10;;;;;;;20.36;56.23;100191.84;1612585;84;21008;-68
2022/09/05 14:15:45;;;;;;;13.08;7.45;;;;;;;20.38;54.05;100190.08;1659357;85;21040;-69
2022/09/05 14:21:14;;;;;;;18.00;6.85;;;;;;;20.36;54.94;100195.23;1659734;86;21083;-67
2022/09/05 14:21:19;;;;;;;12.18;6.87;;;;;;;20.40;54.99;100194.72;1656466;86;22094;-69
2022/09/05 14:24:23;;;;;;;11.33;6.28;;;;;;;20.40;53.91;100198.91;1641776;86;21436;-69
2022/09/05 14:27:02;;;;;;;9.53;6.22;;;;;;;20.37;54.68;100192.05;1658933;86;20983;-68
2022/09/05 14:29:48;;;;;;;7.53;5.40;;;;;;;20.46;54.92;100194.62;1659066;86;20959;-67
2022/09/05 14:32:24;;;;;;;7.40;5.10;;;;;;;20.51;54.58;100196.30;1659146;86;21436;-67
2022/09/05 14:35:39;;;;;;;10.18;5.75;;;;;;;20.49;54.73;100198.68;1658976;86;21008;-67
2022/09/05 14:38:17;;;;;;;15.48;7.58;;;;;;;20.41;53.81;100201.34;1660156;85;21417;-68
2022/09/05 14:41:30;;;;;;;9.73;6.75;;;;;;;20.20;54.57;100196.13;1660284;86;21007;-69
2022/09/05 14:44:28;;;;;;;15.95;8.35;;;;;;;20.15;54.26;100192.23;1659106;85;21042;-69
2022/09/05 14:47:12;;;;;;;24.67;9.58;;;;;;;20.13;55.00;100187.62;1659666;85;20968;-70
2022/09/05 14:50:38;;;;;;;18.50;10.15;;;;;;;20.04;57.00;100192.86;1659488;85;21445;-69
2022/09/05 14:53:07;;;;;;;;;;;;;;;20.02;58.14;100197.16;1658090;85;20898;-68
2022/09/05 14:55:37;;;;;;;17.87;8.80;;;;;;;20.04;58.70;100196.23;1651194;86;20115;-68
2022/09/05 14:58:08;;;;;;;17.90;10.43;;;;;;;20.06;59.11;100198.08;1652992;85;20954;-68
2022/09/05 15:00:59;;;;;;;19.37;10.55;;;;;;;20.05;58.52;100201.45;1639297;86;21402;-68
2022/09/05 15:03:40;;;;;;;23.40;10.85;;;;;;;20.03;58.91;100196.78;1658657;86;22274;-68
2022/09/05 15:06:20;;;;;;;18.05;11.05;;;;;;;20.03;58.05;100200.16;1659292;86;20989;-68
2022/09/05 15:08:59;;;;;;;21.17;12.07;;;;;;;20.02;59.57;100200.77;1659814;86;20954;-72
2022/09/05 15:11:28;;;;;;;19.90;10.82;;;;;;;20.02;58.11;100202.75;1656064;86;21471;-68
2022/09/05 15:14:05;;;;;;;19.37;12.15;;;;;;;19.97;58.34;100203.04;1659961;86;21529;-68
2022/09/05 15:16:37;;;;;;;30.55;11.35;;;;;;;19.95;60.45;100197.23;1659721;86;21060;-70
2022/09/05 15:19:12;;;;;;;20.27;10.65;;;;;;;19.92;61.07;100197.16;1659863;86;21489;-68
2022/09/05 15:21:40;;;;;;;21.20;9.90;;;;;;;19.90;61.68;100206.50;1656922;85;21139;-68
2022/09/05 15:24:23;;;;;;;25.55;10.28;;;;;;;19.88;61.13;100198.48;1659974;86;20921;-68
2022/09/05 15:26:59;;;;;;;18.02;10.08;;;;;;;19.82;61.67;100198.56;1659649;86;21584;-70
2022/09/05 15:29:30;;;;;;;14.33;9.10;;;;;;;19.80;62.08;100199.52;1659827;86;21883;-66
2022/09/05 15:32:22;;;;;;;20.25;9.93;;;;;;;19.80;62.32;100198.94;1659679;86;20921;-69
2022/09/05 15:34:55;;;;;;;19.30;9.78;;;;;;;19.79;63.03;100201.48;1629096;87;20973;-69
2022/09/05 15:37:39;;;;;;;19.57;9.33;;;;;;;19.77;62.28;100204.44;1653924;86;21477;-68
2022/09/05 15:40:21;;;;;;;21.37;8.58;;;;;;;19.75;62.28;100204.81;1659398;86;21060;-69
2022/09/05 15:43:00;;;;;;;16.00;8.73;;;;;;;19.73;62.71;100204.36;1659388;84;21968;-69
2022/09/05 15:45:40;;;;;;;24.32;9.68;;;;;;;19.72;62.41;100208.92;1659791;86;20901;-69
2022/09/05 15:48:21;;;;;;;30.92;8.43;;;;;;;19.65;61.61;100208.97;1659600;86;21549;-70
2022/09/05 15:50:55;;;;;;;18.52;8.38;;;;;;;19.55;62.98;100205.38;1656304;86;20961;-68
2022/09/05 15:53:30;;;;;;;19.55;10.00;;;;;;;19.52;62.49;100207.48;1659645;86;21488;-68
2022/09/05 15:56:11;;;;;;;19.75;9.85;;;;;;;19.44;62.71;100207.34;1659895;85;21123;-71
2022/09/05 15:58:43;;;;;;;20.68;11.53;;;;;;;19.38;62.43;100206.59;1652582;84;21017;-70
2022/09/05 16:01:15;;;;;;;22.03;11.80;;;;;;;19.36;62.36;100206.14;1633333;87;21023;-69
2022/09/05 16:03:45;;;;;;;23.57;11.45;;;;;;;19.33;62.35;100214.06;1633524;87;21268;-70
2022/09/05 16:06:12;;;;;;;21.02;12.05;;;;;;;19.27;62.22;100212.73;1633846;87;21533;-70
2022/09/05 16:08:49;;;;;;;21.42;12.73;;;;;;;19.15;60.91;100208.07;1633483;87;21085;-70
2022/09/05 16:11:41;;;;;;;23.70;12.98;;;;;;;19.05;61.89;100213.59;1633009;87;21025;-69